sensor_id;sensor_type;location;lat;lon;timestamp;P1;durP1;ratioP1;P2;durP2;ratioP2
22995;SDS011;11664;49.774;8.650;2024-01-11T00:00:24;12.95;;;7.38;;
22995;SDS011;11664;49.774;8.650;2024-01-11T00:02:57;15.40;;;8.05;;
22995;SDS011;11664;49.774;8.650;2024-01-11T00:05:25;23.52;;;8.48;;
22995;SDS011;11664;49.774;8.650;2024-01-11T00:07:54;12.45;;;8.32;;
22995;SDS011;11664;49.774;8.650;2024-01-11T00:10:20;11.07;;;6.32;;
22995;SDS011;11664;49.774;8.650;2024-01-11T00:12:54;18.08;;;9.32;;
22995;SDS011;11664;49.774;8.650;2024-01-11T00:15:26;13.70;;;7.85;;
22995;SDS011;11664;49.774;8.650;2024-01-11T00:17:55;17.17;;;9.32;;
22995;SDS011;11664;49.774;8.650;2024-01-11T00:20:35;17.05;;;8.82;;
22995;SDS011;11664;49.774;8.650;2024-01-11T00:23:01;17.33;;;8.27;;
22995;SDS011;11664;49.774;8.650;2024-01-11T00:25:29;13.05;;;7.32;;
22995;SDS011;11664;49.774;8.650;2024-01-11T00:27:58;20.60;;;8.82;;
22995;SDS011;11664;49.774;8.650;2024-01-11T00:30:27;13.63;;;8.68;;
22995;SDS011;11664;49.774;8.650;2024-01-11T00:32:52;15.32;;;7.47;;
22995;SDS011;11664;49.774;8.650;2024-01-11T00:35:18;14.02;;;7.80;;
22995;SDS011;11664;49.774;8.650;2024-01-11T00:37:46;12.65;;;8.05;;
22995;SDS011;11664;49.774;8.650;2024-01-11T00:40:15;9.45;;;6.88;;
22995;SDS011;11664;49.774;8.650;2024-01-11T00:42:56;13.95;;;7.72;;
22995;SDS011;11664;49.774;8.650;2024-01-11T00:45:34;18.88;;;9.70;;
22995;SDS011;11664;49.774;8.650;2024-01-11T00:48:06;9.88;;;7.28;;
22995;SDS011;11664;49.774;8.650;2024-01-11T00:50:35;12.57;;;7.60;;
22995;SDS011;11664;49.774;8.650;2024-01-11T00:53:06;12.85;;;7.65;;
22995;SDS011;11664;49.774;8.650;2024-01-11T00:55:33;12.75;;;7.50;;
22995;SDS011;11664;49.774;8.650;2024-01-11T00:58:04;12.23;;;9.00;;
22995;SDS011;11664;49.774;8.650;2024-01-11T01:00:36;15.77;;;7.65;;
22995;SDS011;11664;49.774;8.650;2024-01-11T01:03:07;15.60;;;8.50;;
22995;SDS011;11664;49.774;8.650;2024-01-11T01:05:42;14.52;;;8.10;;
22995;SDS011;11664;49.774;8.650;2024-01-11T01:08:23;16.70;;;9.07;;
22995;SDS011;11664;49.774;8.650;2024-01-11T01:10:50;21.15;;;9.07;;
22995;SDS011;11664;49.774;8.650;2024-01-11T01:13:15;10.63;;;6.90;;
22995;SDS011;11664;49.774;8.650;2024-01-11T01:15:44;15.95;;;9.50;;
22995;SDS011;11664;49.774;8.650;2024-01-11T01:18:15;16.27;;;8.32;;
22995;SDS011;11664;49.774;8.650;2024-01-11T01:20:44;12.68;;;6.72;;
22995;SDS011;11664;49.774;8.650;2024-01-11T01:23:25;18.55;;;8.77;;
22995;SDS011;11664;49.774;8.650;2024-01-11T01:25:50;10.20;;;7.00;;
22995;SDS011;11664;49.774;8.650;2024-01-11T01:28:22;9.60;;;8.40;;
22995;SDS011;11664;49.774;8.650;2024-01-11T01:30:51;13.70;;;8.55;;
22995;SDS011;11664;49.774;8.650;2024-01-11T01:36:10;10.70;;;7.22;;
22995;SDS011;11664;49.774;8.650;2024-01-11T01:38:40;10.70;;;7.55;;
22995;SDS011;11664;49.774;8.650;2024-01-11T01:41:24;17.02;;;8.52;;
22995;SDS011;11664;49.774;8.650;2024-01-11T01:43:52;16.25;;;7.97;;
22995;SDS011;11664;49.774;8.650;2024-01-11T01:46:24;13.65;;;9.10;;
22995;SDS011;11664;49.774;8.650;2024-01-11T01:48:51;14.25;;;8.35;;
22995;SDS011;11664;49.774;8.650;2024-01-11T01:54:25;11.65;;;7.82;;
22995;SDS011;11664;49.774;8.650;2024-01-11T01:56:51;12.82;;;8.13;;
22995;SDS011;11664;49.774;8.650;2024-01-11T01:59:24;20.17;;;8.80;;
22995;SDS011;11664;49.774;8.650;2024-01-11T02:01:56;19.00;;;10.32;;
22995;SDS011;11664;49.774;8.650;2024-01-11T02:04:28;14.98;;;8.25;;
22995;SDS011;11664;49.774;8.650;2024-01-11T02:06:59;20.15;;;9.98;;
22995;SDS011;11664;49.774;8.650;2024-01-11T02:09:35;12.38;;;7.72;;
22995;SDS011;11664;49.774;8.650;2024-01-11T02:12:02;20.60;;;9.13;;
22995;SDS011;11664;49.774;8.650;2024-01-11T02:14:28;20.92;;;10.38;;
22995;SDS011;11664;49.774;8.650;2024-01-11T02:17:01;11.13;;;7.82;;
22995;SDS011;11664;49.774;8.650;2024-01-11T02:19:30;12.10;;;7.15;;
22995;SDS011;11664;49.774;8.650;2024-01-11T02:22:07;9.23;;;5.82;;
22995;SDS011;11664;49.774;8.650;2024-01-11T02:24:40;9.80;;;7.70;;
22995;SDS011;11664;49.774;8.650;2024-01-11T02:27:20;15.70;;;7.43;;
22995;SDS011;11664;49.774;8.650;2024-01-11T02:29:49;9.40;;;6.57;;
22995;SDS011;11664;49.774;8.650;2024-01-11T02:32:15;14.20;;;8.07;;
22995;SDS011;11664;49.774;8.650;2024-01-11T02:34:46;10.65;;;7.90;;
22995;SDS011;11664;49.774;8.650;2024-01-11T02:37:18;9.98;;;7.10;;
22995;SDS011;11664;49.774;8.650;2024-01-11T02:39:47;10.23;;;7.70;;
22995;SDS011;11664;49.774;8.650;2024-01-11T02:42:21;11.15;;;6.35;;
22995;SDS011;11664;49.774;8.650;2024-01-11T02:44:53;17.42;;;8.48;;
22995;SDS011;11664;49.774;8.650;2024-01-11T02:47:22;13.98;;;7.38;;
22995;SDS011;11664;49.774;8.650;2024-01-11T02:49:53;14.98;;;7.55;;
22995;SDS011;11664;49.774;8.650;2024-01-11T02:52:31;12.57;;;6.63;;
22995;SDS011;11664;49.774;8.650;2024-01-11T02:54:57;17.80;;;8.13;;
22995;SDS011;11664;49.774;8.650;2024-01-11T02:57:25;11.07;;;7.05;;
22995;SDS011;11664;49.774;8.650;2024-01-11T02:59:51;11.52;;;7.55;;
22995;SDS011;11664;49.774;8.650;2024-01-11T03:02:16;14.82;;;8.00;;
22995;SDS011;11664;49.774;8.650;2024-01-11T03:04:45;13.98;;;8.38;;
22995;SDS011;11664;49.774;8.650;2024-01-11T03:07:20;16.63;;;8.45;;
22995;SDS011;11664;49.774;8.650;2024-01-11T03:10:01;17.25;;;8.40;;
22995;SDS011;11664;49.774;8.650;2024-01-11T03:12:32;10.77;;;7.40;;
22995;SDS011;11664;49.774;8.650;2024-01-11T03:15:04;12.20;;;7.28;;
22995;SDS011;11664;49.774;8.650;2024-01-11T03:17:51;13.05;;;7.28;;
22995;SDS011;11664;49.774;8.650;2024-01-11T03:20:26;12.82;;;7.68;;
22995;SDS011;11664;49.774;8.650;2024-01-11T03:22:51;16.17;;;10.38;;
22995;SDS011;11664;49.774;8.650;2024-01-11T03:25:20;17.88;;;8.18;;
22995;SDS011;11664;49.774;8.650;2024-01-11T03:27:46;17.38;;;7.90;;
22995;SDS011;11664;49.774;8.650;2024-01-11T03:30:24;12.20;;;7.97;;
22995;SDS011;11664;49.774;8.650;2024-01-11T03:32:50;14.20;;;7.35;;
22995;SDS011;11664;49.774;8.650;2024-01-11T03:35:21;14.93;;;8.07;;
22995;SDS011;11664;49.774;8.650;2024-01-11T03:37:53;14.65;;;7.90;;
22995;SDS011;11664;49.774;8.650;2024-01-11T03:40:28;20.80;;;8.98;;
22995;SDS011;11664;49.774;8.650;2024-01-11T03:42:56;16.10;;;7.80;;
22995;SDS011;11664;49.774;8.650;2024-01-11T03:45:25;12.30;;;6.97;;
22995;SDS011;11664;49.774;8.650;2024-01-11T03:48:03;15.93;;;8.38;;
22995;SDS011;11664;49.774;8.650;2024-01-11T03:50:35;11.93;;;7.57;;
22995;SDS011;11664;49.774;8.650;2024-01-11T03:53:01;17.85;;;7.82;;
22995;SDS011;11664;49.774;8.650;2024-01-11T03:55:27;11.57;;;7.22;;
22995;SDS011;11664;49.774;8.650;2024-01-11T03:57:56;17.80;;;8.10;;
22995;SDS011;11664;49.774;8.650;2024-01-11T04:00:27;15.02;;;8.45;;
22995;SDS011;11664;49.774;8.650;2024-01-11T04:02:53;10.63;;;6.60;;
22995;SDS011;11664;49.774;8.650;2024-01-11T04:05:24;10.82;;;7.28;;
22995;SDS011;11664;49.774;8.650;2024-01-11T04:07:56;11.25;;;6.70;;
22995;SDS011;11664;49.774;8.650;2024-01-11T04:10:21;11.32;;;7.47;;
22995;SDS011;11664;49.774;8.650;2024-01-11T04:12:50;14.32;;;7.47;;
22995;SDS011;11664;49.774;8.650;2024-01-11T04:15:31;17.70;;;7.90;;
22995;SDS011;11664;49.774;8.650;2024-01-11T04:17:56;13.35;;;6.30;;
22995;SDS011;11664;49.774;8.650;2024-01-11T04:20:25;10.07;;;6.50;;
22995;SDS011;11664;49.774;8.650;2024-01-11T04:23:00;15.45;;;7.97;;
22995;SDS011;11664;49.774;8.650;2024-01-11T04:25:35;14.20;;;8.52;;
22995;SDS011;11664;49.774;8.650;2024-01-11T04:28:03;15.70;;;8.57;;
22995;SDS011;11664;49.774;8.650;2024-01-11T04:30:38;19.15;;;9.63;;
22995;SDS011;11664;49.774;8.650;2024-01-11T04:33:03;11.45;;;8.07;;
22995;SDS011;11664;49.774;8.650;2024-01-11T04:35:29;12.73;;;8.27;;
22995;SDS011;11664;49.774;8.650;2024-01-11T04:38:03;15.63;;;9.20;;
22995;SDS011;11664;49.774;8.650;2024-01-11T04:40:44;18.75;;;9.32;;
22995;SDS011;11664;49.774;8.650;2024-01-11T04:43:10;16.38;;;8.82;;
22995;SDS011;11664;49.774;8.650;2024-01-11T04:45:35;15.00;;;8.32;;
22995;SDS011;11664;49.774;8.650;2024-01-11T04:48:01;16.30;;;8.85;;
22995;SDS011;11664;49.774;8.650;2024-01-11T04:50:30;19.35;;;9.32;;
22995;SDS011;11664;49.774;8.650;2024-01-11T04:53:01;14.57;;;9.52;;
22995;SDS011;11664;49.774;8.650;2024-01-11T04:55:32;14.75;;;8.40;;
22995;SDS011;11664;49.774;8.650;2024-01-11T04:58:01;13.05;;;8.35;;
22995;SDS011;11664;49.774;8.650;2024-01-11T05:00:30;12.32;;;7.93;;
22995;SDS011;11664;49.774;8.650;2024-01-11T05:02:58;11.90;;;9.15;;
22995;SDS011;11664;49.774;8.650;2024-01-11T05:05:24;10.88;;;8.02;;
22995;SDS011;11664;49.774;8.650;2024-01-11T05:07:52;17.00;;;8.60;;
22995;SDS011;11664;49.774;8.650;2024-01-11T05:10:18;11.93;;;8.30;;
22995;SDS011;11664;49.774;8.650;2024-01-11T05:12:47;17.02;;;8.40;;
22995;SDS011;11664;49.774;8.650;2024-01-11T05:15:12;17.50;;;8.75;;
22995;SDS011;11664;49.774;8.650;2024-01-11T05:17:38;11.75;;;8.35;;
22995;SDS011;11664;49.774;8.650;2024-01-11T05:20:03;10.50;;;7.63;;
22995;SDS011;11664;49.774;8.650;2024-01-11T05:22:30;11.93;;;7.97;;
22995;SDS011;11664;49.774;8.650;2024-01-11T05:25:02;15.68;;;9.00;;
22995;SDS011;11664;49.774;8.650;2024-01-11T05:27:33;15.00;;;8.15;;
22995;SDS011;11664;49.774;8.650;2024-01-11T05:33:11;16.20;;;9.73;;
22995;SDS011;11664;49.774;8.650;2024-01-11T05:35:37;13.20;;;8.80;;
22995;SDS011;11664;49.774;8.650;2024-01-11T05:38:02;20.17;;;9.23;;
22995;SDS011;11664;49.774;8.650;2024-01-11T05:40:34;14.85;;;9.65;;
22995;SDS011;11664;49.774;8.650;2024-01-11T05:43:03;17.42;;;9.45;;
22995;SDS011;11664;49.774;8.650;2024-01-11T05:45:31;15.25;;;7.80;;
22995;SDS011;11664;49.774;8.650;2024-01-11T05:47:58;17.55;;;9.50;;
22995;SDS011;11664;49.774;8.650;2024-01-11T05:50:43;17.77;;;12.95;;
22995;SDS011;11664;49.774;8.650;2024-01-11T05:53:09;10.10;;;8.95;;
22995;SDS011;11664;49.774;8.650;2024-01-11T05:55:42;16.63;;;8.85;;
22995;SDS011;11664;49.774;8.650;2024-01-11T05:58:07;12.85;;;9.43;;
22995;SDS011;11664;49.774;8.650;2024-01-11T06:00:33;26.13;;;8.55;;
22995;SDS011;11664;49.774;8.650;2024-01-11T06:03:01;16.10;;;8.93;;
22995;SDS011;11664;49.774;8.650;2024-01-11T06:05:33;11.73;;;7.47;;
22995;SDS011;11664;49.774;8.650;2024-01-11T06:07:59;12.40;;;7.63;;
22995;SDS011;11664;49.774;8.650;2024-01-11T06:10:24;14.45;;;8.95;;
22995;SDS011;11664;49.774;8.650;2024-01-11T06:12:50;25.15;;;11.57;;
22995;SDS011;11664;49.774;8.650;2024-01-11T06:15:18;29.98;;;8.73;;
22995;SDS011;11664;49.774;8.650;2024-01-11T06:17:52;12.32;;;7.53;;
22995;SDS011;11664;49.774;8.650;2024-01-11T06:20:18;12.43;;;9.93;;
22995;SDS011;11664;49.774;8.650;2024-01-11T06:22:46;14.35;;;8.63;;
22995;SDS011;11664;49.774;8.650;2024-01-11T06:25:12;15.57;;;10.00;;
22995;SDS011;11664;49.774;8.650;2024-01-11T06:27:43;19.65;;;8.98;;
22995;SDS011;11664;49.774;8.650;2024-01-11T06:30:15;14.00;;;9.57;;
22995;SDS011;11664;49.774;8.650;2024-01-11T06:32:44;21.45;;;11.23;;
22995;SDS011;11664;49.774;8.650;2024-01-11T06:35:09;17.48;;;10.13;;
22995;SDS011;11664;49.774;8.650;2024-01-11T06:37:38;18.20;;;10.25;;
22995;SDS011;11664;49.774;8.650;2024-01-11T06:40:04;23.40;;;11.95;;
22995;SDS011;11664;49.774;8.650;2024-01-11T06:42:33;28.45;;;11.60;;
22995;SDS011;11664;49.774;8.650;2024-01-11T06:44:58;24.13;;;10.48;;
22995;SDS011;11664;49.774;8.650;2024-01-11T06:47:27;22.55;;;12.57;;
22995;SDS011;11664;49.774;8.650;2024-01-11T06:49:53;24.45;;;11.02;;
22995;SDS011;11664;49.774;8.650;2024-01-11T06:52:18;19.90;;;9.15;;
22995;SDS011;11664;49.774;8.650;2024-01-11T06:54:51;24.15;;;11.02;;
22995;SDS011;11664;49.774;8.650;2024-01-11T06:57:33;24.67;;;9.57;;
22995;SDS011;11664;49.774;8.650;2024-01-11T06:59:59;18.10;;;9.80;;
22995;SDS011;11664;49.774;8.650;2024-01-11T07:02:24;17.60;;;10.70;;
22995;SDS011;11664;49.774;8.650;2024-01-11T07:04:50;18.05;;;10.60;;
22995;SDS011;11664;49.774;8.650;2024-01-11T07:07:19;18.23;;;10.23;;
22995;SDS011;11664;49.774;8.650;2024-01-11T07:12:44;20.63;;;11.43;;
22995;SDS011;11664;49.774;8.650;2024-01-11T07:18:04;18.27;;;9.27;;
22995;SDS011;11664;49.774;8.650;2024-01-11T07:20:32;14.18;;;9.20;;
22995;SDS011;11664;49.774;8.650;2024-01-11T07:23:04;19.02;;;11.38;;
22995;SDS011;11664;49.774;8.650;2024-01-11T07:25:36;20.10;;;10.30;;
22995;SDS011;11664;49.774;8.650;2024-01-11T07:28:05;18.05;;;9.52;;
22995;SDS011;11664;49.774;8.650;2024-01-11T07:30:30;18.92;;;9.73;;
22995;SDS011;11664;49.774;8.650;2024-01-11T07:33:02;20.88;;;10.75;;
22995;SDS011;11664;49.774;8.650;2024-01-11T07:35:29;15.57;;;8.60;;
22995;SDS011;11664;49.774;8.650;2024-01-11T07:37:55;19.88;;;10.02;;
22995;SDS011;11664;49.774;8.650;2024-01-11T07:40:22;17.13;;;9.50;;
22995;SDS011;11664;49.774;8.650;2024-01-11T07:42:48;23.48;;;10.50;;
22995;SDS011;11664;49.774;8.650;2024-01-11T07:45:14;22.65;;;11.98;;
22995;SDS011;11664;49.774;8.650;2024-01-11T07:47:47;26.23;;;11.38;;
22995;SDS011;11664;49.774;8.650;2024-01-11T07:50:19;14.00;;;8.70;;
22995;SDS011;11664;49.774;8.650;2024-01-11T07:52:47;19.35;;;10.10;;
22995;SDS011;11664;49.774;8.650;2024-01-11T07:55:14;27.80;;;11.07;;
22995;SDS011;11664;49.774;8.650;2024-01-11T07:57:40;18.10;;;10.57;;
22995;SDS011;11664;49.774;8.650;2024-01-11T08:00:05;24.27;;;10.27;;
22995;SDS011;11664;49.774;8.650;2024-01-11T08:02:47;19.27;;;9.48;;
22995;SDS011;11664;49.774;8.650;2024-01-11T08:05:12;23.05;;;9.63;;
22995;SDS011;11664;49.774;8.650;2024-01-11T08:07:41;17.25;;;9.30;;
22995;SDS011;11664;49.774;8.650;2024-01-11T08:10:07;16.65;;;10.32;;
22995;SDS011;11664;49.774;8.650;2024-01-11T08:12:34;21.95;;;9.35;;
22995;SDS011;11664;49.774;8.650;2024-01-11T08:15:06;17.45;;;10.48;;
22995;SDS011;11664;49.774;8.650;2024-01-11T08:17:39;22.70;;;10.57;;
22995;SDS011;11664;49.774;8.650;2024-01-11T08:20:25;22.30;;;9.88;;
22995;SDS011;11664;49.774;8.650;2024-01-11T08:23:03;23.02;;;10.60;;
22995;SDS011;11664;49.774;8.650;2024-01-11T08:25:35;18.20;;;10.55;;
22995;SDS011;11664;49.774;8.650;2024-01-11T08:28:15;22.15;;;9.73;;
22995;SDS011;11664;49.774;8.650;2024-01-11T08:30:41;16.80;;;10.63;;
22995;SDS011;11664;49.774;8.650;2024-01-11T08:33:16;22.25;;;9.98;;
22995;SDS011;11664;49.774;8.650;2024-01-11T08:35:41;17.05;;;9.77;;
22995;SDS011;11664;49.774;8.650;2024-01-11T08:38:07;20.00;;;8.65;;
22995;SDS011;11664;49.774;8.650;2024-01-11T08:40:38;17.15;;;10.40;;
22995;SDS011;11664;49.774;8.650;2024-01-11T08:43:04;19.92;;;9.88;;
22995;SDS011;11664;49.774;8.650;2024-01-11T08:45:31;21.05;;;9.77;;
22995;SDS011;11664;49.774;8.650;2024-01-11T08:48:03;21.83;;;9.55;;
22995;SDS011;11664;49.774;8.650;2024-01-11T08:52:58;25.42;;;13.60;;
22995;SDS011;11664;49.774;8.650;2024-01-11T08:55:23;28.17;;;14.63;;
22995;SDS011;11664;49.774;8.650;2024-01-11T08:57:49;22.30;;;11.32;;
22995;SDS011;11664;49.774;8.650;2024-01-11T09:00:14;13.27;;;9.90;;
22995;SDS011;11664;49.774;8.650;2024-01-11T09:03:02;23.02;;;11.40;;
22995;SDS011;11664;49.774;8.650;2024-01-11T09:05:31;16.58;;;10.15;;
22995;SDS011;11664;49.774;8.650;2024-01-11T09:07:57;19.33;;;10.70;;
22995;SDS011;11664;49.774;8.650;2024-01-11T09:10:22;21.17;;;9.13;;
22995;SDS011;11664;49.774;8.650;2024-01-11T09:15:33;23.63;;;9.55;;
22995;SDS011;11664;49.774;8.650;2024-01-11T09:17:59;14.77;;;9.70;;
22995;SDS011;11664;49.774;8.650;2024-01-11T09:20:31;16.67;;;10.98;;
22995;SDS011;11664;49.774;8.650;2024-01-11T09:26:21;20.77;;;9.38;;
22995;SDS011;11664;49.774;8.650;2024-01-11T09:28:56;19.95;;;10.02;;
22995;SDS011;11664;49.774;8.650;2024-01-11T09:31:28;17.23;;;9.68;;
22995;SDS011;11664;49.774;8.650;2024-01-11T09:33:57;20.33;;;11.27;;
22995;SDS011;11664;49.774;8.650;2024-01-11T09:36:23;19.48;;;11.15;;
22995;SDS011;11664;49.774;8.650;2024-01-11T09:38:48;27.90;;;13.82;;
22995;SDS011;11664;49.774;8.650;2024-01-11T09:41:20;26.65;;;10.63;;
22995;SDS011;11664;49.774;8.650;2024-01-11T09:43:52;18.35;;;10.27;;
22995;SDS011;11664;49.774;8.650;2024-01-11T09:46:20;22.58;;;11.52;;
22995;SDS011;11664;49.774;8.650;2024-01-11T09:48:51;15.85;;;10.65;;
22995;SDS011;11664;49.774;8.650;2024-01-11T09:51:20;24.67;;;12.43;;
22995;SDS011;11664;49.774;8.650;2024-01-11T09:53:52;26.83;;;10.57;;
22995;SDS011;11664;49.774;8.650;2024-01-11T09:56:19;15.48;;;11.10;;
22995;SDS011;11664;49.774;8.650;2024-01-11T09:58:46;22.45;;;10.63;;
22995;SDS011;11664;49.774;8.650;2024-01-11T10:01:15;21.58;;;10.15;;
22995;SDS011;11664;49.774;8.650;2024-01-11T10:03:44;20.27;;;10.77;;
22995;SDS011;11664;49.774;8.650;2024-01-11T10:06:22;22.17;;;11.02;;
22995;SDS011;11664;49.774;8.650;2024-01-11T10:08:51;26.52;;;10.55;;
22995;SDS011;11664;49.774;8.650;2024-01-11T10:11:25;21.35;;;9.73;;
22995;SDS011;11664;49.774;8.650;2024-01-11T10:13:56;15.80;;;9.25;;
22995;SDS011;11664;49.774;8.650;2024-01-11T10:16:22;17.02;;;9.65;;
22995;SDS011;11664;49.774;8.650;2024-01-11T10:18:55;16.70;;;9.98;;
22995;SDS011;11664;49.774;8.650;2024-01-11T10:24:10;22.52;;;10.75;;
22995;SDS011;11664;49.774;8.650;2024-01-11T10:26:57;20.33;;;10.77;;
22995;SDS011;11664;49.774;8.650;2024-01-11T10:32:16;17.33;;;10.10;;
22995;SDS011;11664;49.774;8.650;2024-01-11T10:34:48;20.20;;;10.55;;
22995;SDS011;11664;49.774;8.650;2024-01-11T10:37:17;21.88;;;11.65;;
22995;SDS011;11664;49.774;8.650;2024-01-11T10:42:45;24.70;;;10.90;;
22995;SDS011;11664;49.774;8.650;2024-01-11T10:45:19;17.23;;;9.50;;
22995;SDS011;11664;49.774;8.650;2024-01-11T10:50:57;18.08;;;9.88;;
22995;SDS011;11664;49.774;8.650;2024-01-11T10:56:10;18.15;;;10.80;;
22995;SDS011;11664;49.774;8.650;2024-01-11T10:58:43;18.42;;;10.20;;
22995;SDS011;11664;49.774;8.650;2024-01-11T11:01:25;23.80;;;12.90;;
22995;SDS011;11664;49.774;8.650;2024-01-11T11:03:51;25.27;;;11.95;;
22995;SDS011;11664;49.774;8.650;2024-01-11T11:06:22;21.50;;;12.60;;
22995;SDS011;11664;49.774;8.650;2024-01-11T11:08:49;26.20;;;12.07;;
22995;SDS011;11664;49.774;8.650;2024-01-11T11:11:15;23.60;;;11.20;;
22995;SDS011;11664;49.774;8.650;2024-01-11T11:13:43;23.98;;;11.02;;
22995;SDS011;11664;49.774;8.650;2024-01-11T11:16:14;27.00;;;10.95;;
22995;SDS011;11664;49.774;8.650;2024-01-11T11:18:43;14.75;;;9.82;;
22995;SDS011;11664;49.774;8.650;2024-01-11T11:21:17;18.00;;;9.68;;
22995;SDS011;11664;49.774;8.650;2024-01-11T11:23:46;26.50;;;11.85;;
22995;SDS011;11664;49.774;8.650;2024-01-11T11:26:18;23.45;;;11.27;;
22995;SDS011;11664;49.774;8.650;2024-01-11T11:28:46;19.38;;;9.35;;
22995;SDS011;11664;49.774;8.650;2024-01-11T11:34:18;28.13;;;9.68;;
22995;SDS011;11664;49.774;8.650;2024-01-11T11:36:48;24.92;;;10.77;;
22995;SDS011;11664;49.774;8.650;2024-01-11T11:39:25;19.58;;;9.27;;
22995;SDS011;11664;49.774;8.650;2024-01-11T11:42:01;25.35;;;11.63;;
22995;SDS011;11664;49.774;8.650;2024-01-11T11:47:48;22.75;;;10.32;;
22995;SDS011;11664;49.774;8.650;2024-01-11T11:50:14;24.52;;;9.98;;
22995;SDS011;11664;49.774;8.650;2024-01-11T11:52:40;19.88;;;8.73;;
22995;SDS011;11664;49.774;8.650;2024-01-11T11:55:07;23.05;;;10.77;;
22995;SDS011;11664;49.774;8.650;2024-01-11T11:57:37;23.73;;;10.10;;
22995;SDS011;11664;49.774;8.650;2024-01-11T12:00:03;19.88;;;10.00;;
22995;SDS011;11664;49.774;8.650;2024-01-11T12:02:53;26.95;;;9.88;;
22995;SDS011;11664;49.774;8.650;2024-01-11T12:05:31;26.08;;;9.70;;
22995;SDS011;11664;49.774;8.650;2024-01-11T12:08:02;21.10;;;9.13;;
22995;SDS011;11664;49.774;8.650;2024-01-11T12:10:28;24.92;;;10.27;;
22995;SDS011;11664;49.774;8.650;2024-01-11T12:12:57;23.55;;;10.77;;
22995;SDS011;11664;49.774;8.650;2024-01-11T12:15:27;26.52;;;10.93;;
22995;SDS011;11664;49.774;8.650;2024-01-11T12:18:02;21.08;;;10.63;;
22995;SDS011;11664;49.774;8.650;2024-01-11T12:20:39;21.77;;;8.98;;
22995;SDS011;11664;49.774;8.650;2024-01-11T12:23:05;25.05;;;10.02;;
22995;SDS011;11664;49.774;8.650;2024-01-11T12:25:31;26.13;;;11.32;;
22995;SDS011;11664;49.774;8.650;2024-01-11T12:28:06;19.73;;;10.15;;
22995;SDS011;11664;49.774;8.650;2024-01-11T12:30:40;22.25;;;9.77;;
22995;SDS011;11664;49.774;8.650;2024-01-11T12:33:17;19.05;;;8.77;;
22995;SDS011;11664;49.774;8.650;2024-01-11T12:35:53;17.63;;;8.60;;
22995;SDS011;11664;49.774;8.650;2024-01-11T12:38:22;20.80;;;8.98;;
22995;SDS011;11664;49.774;8.650;2024-01-11T12:40:53;23.07;;;9.83;;
22995;SDS011;11664;49.774;8.650;2024-01-11T12:43:21;22.67;;;9.40;;
22995;SDS011;11664;49.774;8.650;2024-01-11T12:45:53;25.67;;;10.23;;
22995;SDS011;11664;49.774;8.650;2024-01-11T12:48:27;22.80;;;8.98;;
22995;SDS011;11664;49.774;8.650;2024-01-11T12:53:52;20.38;;;9.93;;
22995;SDS011;11664;49.774;8.650;2024-01-11T12:56:30;23.13;;;9.15;;
22995;SDS011;11664;49.774;8.650;2024-01-11T12:59:07;19.33;;;9.77;;
22995;SDS011;11664;49.774;8.650;2024-01-11T13:01:34;17.58;;;8.18;;
22995;SDS011;11664;49.774;8.650;2024-01-11T13:04:19;18.60;;;8.82;;
22995;SDS011;11664;49.774;8.650;2024-01-11T13:06:44;18.10;;;8.82;;
22995;SDS011;11664;49.774;8.650;2024-01-11T13:09:19;13.88;;;6.72;;
22995;SDS011;11664;49.774;8.650;2024-01-11T13:12:03;16.98;;;9.02;;
22995;SDS011;11664;49.774;8.650;2024-01-11T13:14:29;16.10;;;7.63;;
22995;SDS011;11664;49.774;8.650;2024-01-11T13:17:07;19.48;;;9.43;;
22995;SDS011;11664;49.774;8.650;2024-01-11T13:19:38;23.20;;;10.85;;
22995;SDS011;11664;49.774;8.650;2024-01-11T13:22:11;19.70;;;8.50;;
22995;SDS011;11664;49.774;8.650;2024-01-11T13:24:50;26.98;;;11.25;;
22995;SDS011;11664;49.774;8.650;2024-01-11T13:27:21;22.38;;;9.23;;
22995;SDS011;11664;49.774;8.650;2024-01-11T13:29:47;21.77;;;10.00;;
22995;SDS011;11664;49.774;8.650;2024-01-11T13:32:25;28.02;;;10.73;;
22995;SDS011;11664;49.774;8.650;2024-01-11T13:35:03;22.92;;;10.88;;
22995;SDS011;11664;49.774;8.650;2024-01-11T13:40:38;25.23;;;10.80;;
22995;SDS011;11664;49.774;8.650;2024-01-11T13:43:09;26.13;;;10.93;;
22995;SDS011;11664;49.774;8.650;2024-01-11T13:45:47;32.67;;;11.55;;
22995;SDS011;11664;49.774;8.650;2024-01-11T13:48:33;22.58;;;10.25;;
22995;SDS011;11664;49.774;8.650;2024-01-11T13:51:01;26.08;;;11.05;;
22995;SDS011;11664;49.774;8.650;2024-01-11T13:53:32;23.02;;;8.90;;
22995;SDS011;11664;49.774;8.650;2024-01-11T13:55:58;25.80;;;10.60;;
22995;SDS011;11664;49.774;8.650;2024-01-11T13:58:26;27.05;;;11.32;;
22995;SDS011;11664;49.774;8.650;2024-01-11T14:00:52;27.58;;;11.27;;
22995;SDS011;11664;49.774;8.650;2024-01-11T14:03:17;25.52;;;9.73;;
22995;SDS011;11664;49.774;8.650;2024-01-11T14:05:43;20.42;;;9.77;;
22995;SDS011;11664;49.774;8.650;2024-01-11T14:08:15;22.67;;;10.48;;
22995;SDS011;11664;49.774;8.650;2024-01-11T14:10:40;21.73;;;10.70;;
22995;SDS011;11664;49.774;8.650;2024-01-11T14:13:09;21.73;;;10.23;;
22995;SDS011;11664;49.774;8.650;2024-01-11T14:15:34;23.60;;;9.88;;
22995;SDS011;11664;49.774;8.650;2024-01-11T14:18:00;23.88;;;9.25;;
22995;SDS011;11664;49.774;8.650;2024-01-11T14:20:25;24.58;;;10.77;;
22995;SDS011;11664;49.774;8.650;2024-01-11T14:22:52;22.60;;;10.90;;
22995;SDS011;11664;49.774;8.650;2024-01-11T14:25:18;21.48;;;9.30;;
22995;SDS011;11664;49.774;8.650;2024-01-11T14:27:45;23.17;;;10.80;;
22995;SDS011;11664;49.774;8.650;2024-01-11T14:30:19;21.60;;;10.60;;
22995;SDS011;11664;49.774;8.650;2024-01-11T14:32:47;23.65;;;10.15;;
22995;SDS011;11664;49.774;8.650;2024-01-11T14:35:19;22.08;;;8.63;;
22995;SDS011;11664;49.774;8.650;2024-01-11T14:40:35;21.80;;;10.27;;
22995;SDS011;11664;49.774;8.650;2024-01-11T14:43:01;20.05;;;9.52;;
22995;SDS011;11664;49.774;8.650;2024-01-11T14:45:26;22.48;;;9.75;;
22995;SDS011;11664;49.774;8.650;2024-01-11T14:48:07;28.50;;;11.52;;
22995;SDS011;11664;49.774;8.650;2024-01-11T14:50:33;24.17;;;11.20;;
22995;SDS011;11664;49.774;8.650;2024-01-11T14:53:02;25.33;;;9.82;;
22995;SDS011;11664;49.774;8.650;2024-01-11T14:55:28;22.88;;;9.82;;
22995;SDS011;11664;49.774;8.650;2024-01-11T14:57:54;23.23;;;11.27;;
22995;SDS011;11664;49.774;8.650;2024-01-11T15:00:28;17.97;;;8.60;;
22995;SDS011;11664;49.774;8.650;2024-01-11T15:05:43;21.05;;;9.10;;
22995;SDS011;11664;49.774;8.650;2024-01-11T15:08:09;17.30;;;9.88;;
22995;SDS011;11664;49.774;8.650;2024-01-11T15:10:34;31.30;;;11.25;;
22995;SDS011;11664;49.774;8.650;2024-01-11T15:13:03;29.92;;;11.05;;
22995;SDS011;11664;49.774;8.650;2024-01-11T15:15:31;26.45;;;10.13;;
22995;SDS011;11664;49.774;8.650;2024-01-11T15:18:00;18.70;;;9.20;;
22995;SDS011;11664;49.774;8.650;2024-01-11T15:20:25;24.23;;;11.18;;
22995;SDS011;11664;49.774;8.650;2024-01-11T15:22:51;19.92;;;10.18;;
22995;SDS011;11664;49.774;8.650;2024-01-11T15:25:19;25.80;;;10.10;;
22995;SDS011;11664;49.774;8.650;2024-01-11T15:27:52;24.55;;;9.75;;
22995;SDS011;11664;49.774;8.650;2024-01-11T15:30:27;29.83;;;10.05;;
22995;SDS011;11664;49.774;8.650;2024-01-11T15:36:14;25.20;;;8.82;;
22995;SDS011;11664;49.774;8.650;2024-01-11T15:38:46;23.15;;;9.65;;
22995;SDS011;11664;49.774;8.650;2024-01-11T15:41:18;22.42;;;10.70;;
22995;SDS011;11664;49.774;8.650;2024-01-11T15:43:46;26.60;;;10.75;;
22995;SDS011;11664;49.774;8.650;2024-01-11T15:46:20;21.27;;;9.77;;